Time;durP1;ratioP1;P1;durP2;ratioP2;P2;SDS_P1;SDS_P2;PMS_P1;PMS_P2;Temp;Humidity;BMP_temperature;BMP_pressure;BME280_temperature;BME280_humidity;BME280_pressure;Samples;Min_cycle;Max_cycle;Signal;HPM_P1;HPM_P2
2022/06/07 00:02:15;;;;;;;2.10;1.90;;;;;;;16.17;100.00;96269.84;5063243;28;20218;-83
2022/06/07 00:04:42;;;;;;;2.20;2.00;;;;;;;16.20;100.00;96261.16;5064073;28;20269;-83
2022/06/07 00:07:10;;;;;;;3.70;1.80;;;;;;;16.21;100.00;96251.06;5066917;28;20209;-84
2022/06/07 00:09:37;;;;;;;1.80;1.70;;;;;;;16.17;100.00;96258.13;5076623;28;20210;-82
2022/06/07 00:12:07;;;;;;;2.97;1.90;;;;;;;16.21;100.00;96267.41;5066622;28;20213;-84
2022/06/07 00:14:34;;;;;;;2.40;2.00;;;;;;;16.12;100.00;96275.28;5062842;28;20201;-83
2022/06/07 00:17:02;;;;;;;1.90;1.80;;;;;;;16.14;100.00;96266.84;5080422;28;20229;-84
2022/06/07 00:19:29;;;;;;;4.03;1.73;;;;;;;16.07;100.00;96266.28;5057691;28;20202;-82
2022/06/07 00:21:56;;;;;;;1.90;1.70;;;;;;;16.06;100.00;96267.38;5076008;28;20237;-84
2022/06/07 00:24:23;;;;;;;2.57;2.07;;;;;;;16.08;100.00;96267.91;5062160;28;20217;-83
2022/06/07 00:26:50;;;;;;;3.87;2.20;;;;;;;16.01;100.00;96276.31;5081536;28;20198;-84
2022/06/07 00:29:18;;;;;;;3.70;2.17;;;;;;;16.05;100.00;96263.00;5066212;28;20198;-83
2022/06/07 00:31:46;;;;;;;2.53;2.20;;;;;;;16.12;100.00;96266.28;5065049;28;20439;-83
2022/06/07 00:34:15;;;;;;;4.27;2.30;;;;;;;16.15;100.00;96268.50;5062823;28;20208;-83
2022/06/07 00:36:43;;;;;;;4.27;2.60;;;;;;;16.18;100.00;96268.75;5063046;28;20255;-83
2022/06/07 00:39:10;;;;;;;2.90;2.07;;;;;;;16.19;100.00;96267.69;5080585;28;20197;-83
2022/06/07 00:41:38;;;;;;;3.13;2.30;;;;;;;16.14;100.00;96250.50;5062927;28;20205;-83
2022/06/07 00:44:33;;;;;;;2.67;2.13;;;;;;;16.22;100.00;96252.72;5081654;28;20241;-83
2022/06/07 00:47:04;;;;;;;3.17;2.50;;;;;;;16.25;100.00;96252.97;5081683;28;20279;-83
2022/06/07 00:49:35;;;;;;;3.87;2.27;;;;;;;16.27;100.00;96247.25;5076017;28;20218;-84
2022/06/07 00:52:04;;;;;;;8.37;2.40;;;;;;;16.25;100.00;96252.16;5080682;28;20259;-82
2022/06/07 00:54:33;;;;;;;2.43;2.23;;;;;;;16.20;100.00;96250.25;5064033;28;20332;-82
2022/06/07 00:57:09;;;;;;;3.80;2.07;;;;;;;16.26;100.00;96251.88;5079259;28;20205;-82
2022/06/07 00:59:39;;;;;;;3.80;2.50;;;;;;;16.20;100.00;96239.34;5080579;28;20296;-84
2022/06/07 01:02:07;;;;;;;3.13;2.43;;;;;;;16.27;100.00;96245.34;5081837;28;20206;-83
2022/06/07 01:04:35;;;;;;;2.93;2.50;;;;;;;16.24;100.00;96234.19;5073901;28;20209;-82
2022/06/07 01:12:35;;;;;;;2.83;2.20;;;;;;;16.31;100.00;96234.75;5070960;28;20277;-85
2022/06/07 01:15:07;;;;;;;2.57;2.00;;;;;;;16.31;100.00;96234.75;5060916;28;20237;-83
2022/06/07 01:17:34;;;;;;;3.97;2.20;;;;;;;16.20;100.00;96224.91;5061757;28;20193;-84
2022/06/07 01:20:02;;;;;;;3.30;2.63;;;;;;;16.14;100.00;96224.09;5063866;28;20298;-84
2022/06/07 01:22:33;;;;;;;3.50;2.53;;;;;;;16.10;100.00;96233.03;5062146;28;20213;-83
2022/06/07 01:25:01;;;;;;;2.93;2.67;;;;;;;16.07;100.00;96228.16;5061979;28;20213;-85
2022/06/07 01:27:29;;;;;;;3.70;2.50;;;;;;;16.07;100.00;96217.25;5064057;28;20202;-85
2022/06/07 01:29:57;;;;;;;5.40;2.40;;;;;;;16.07;100.00;96217.25;5078507;28;20203;-84
2022/06/07 01:32:25;;;;;;;2.90;2.47;;;;;;;16.10;100.00;96225.69;5065133;28;20197;-84
2022/06/07 01:34:53;;;;;;;5.93;2.67;;;;;;;16.13;100.00;96221.63;5065100;28;20216;-84
2022/06/07 01:37:21;;;;;;;3.47;2.40;;;;;;;16.14;100.00;96223.25;5060700;28;20201;-83
2022/06/07 01:42:34;;;;;;;2.27;2.07;;;;;;;16.14;100.00;96217.81;5077597;28;20260;-85
2022/06/07 01:45:01;;;;;;;4.40;2.23;;;;;;;16.13;100.00;96217.00;5079550;28;20209;-83
2022/06/07 01:47:31;;;;;;;2.47;2.20;;;;;;;16.13;100.00;96194.38;5065521;28;20212;-84
2022/06/07 01:50:02;;;;;;;4.90;2.17;;;;;;;16.17;100.00;96188.13;5058661;28;20240;-83
2022/06/07 01:52:31;;;;;;;5.90;2.13;;;;;;;16.18;100.00;96181.59;5062248;28;20206;-84
2022/06/07 01:55:06;;;;;;;2.73;2.00;;;;;;;16.17;100.00;96185.38;5068757;28;20201;-83
2022/06/07 01:57:39;;;;;;;2.43;2.20;;;;;;;16.19;100.00;96187.84;5077002;28;20227;-83
2022/06/07 02:00:13;;;;;;;4.97;2.10;;;;;;;16.17;100.00;96190.03;5064168;28;20202;-83
2022/06/07 02:02:47;;;;;;;3.70;2.40;;;;;;;16.08;100.00;96176.09;5063819;28;20276;-83
2022/06/07 02:05:17;;;;;;;4.83;2.53;;;;;;;16.08;100.00;96172.56;5064362;28;20205;-84
2022/06/07 02:07:51;;;;;;;2.40;2.20;;;;;;;16.08;100.00;96178.00;5063015;28;20251;-84
2022/06/07 02:10:25;;;;;;;3.63;2.50;;;;;;;16.18;100.00;96191.66;5070258;28;20213;-86
2022/06/07 02:12:53;;;;;;;4.53;2.80;;;;;;;16.19;100.00;96188.66;5059446;28;20245;-84
2022/06/07 02:15:20;;;;;;;4.60;2.70;;;;;;;16.11;100.00;96185.66;5062933;28;20198;-83
2022/06/07 02:17:47;;;;;;;3.57;2.80;;;;;;;16.05;100.00;96178.56;5079929;28;20201;-83
2022/06/07 02:20:30;;;;;;;4.00;3.00;;;;;;;16.05;100.00;96175.84;5078854;28;20236;-84
2022/06/07 02:22:57;;;;;;;3.33;3.00;;;;;;;16.06;100.00;96178.31;5061452;28;20221;-83
2022/06/07 02:25:26;;;;;;;3.10;2.80;;;;;;;16.08;100.00;96167.13;5059448;28;20288;-85
2022/06/07 02:27:54;;;;;;;4.77;2.80;;;;;;;16.11;100.00;96161.16;5078338;28;20210;-84
2022/06/07 02:30:21;;;;;;;5.27;3.10;;;;;;;16.14;100.00;96152.44;5059113;28;20233;-85
2022/06/07 02:32:49;;;;;;;6.07;3.50;;;;;;;16.13;100.00;96145.34;5067056;28;20229;-85
2022/06/07 02:35:16;;;;;;;5.87;3.23;;;;;;;16.01;100.00;96158.41;5061431;28;20447;-84
2022/06/07 02:37:43;;;;;;;6.20;3.30;;;;;;;15.91;100.00;96142.84;5064507;28;20255;-83
2022/06/07 02:40:10;;;;;;;3.20;2.90;;;;;;;16.02;100.00;96157.31;5059116;28;20212;-83
2022/06/07 02:42:39;;;;;;;3.10;2.80;;;;;;;16.04;100.00;96153.25;5060453;28;20332;-83
2022/06/07 02:45:06;;;;;;;3.27;2.60;;;;;;;16.05;100.00;96146.72;5060310;28;20221;-84
2022/06/07 02:47:34;;;;;;;3.43;2.87;;;;;;;16.09;100.00;96153.22;5081594;28;20292;-83
2022/06/07 02:50:07;;;;;;;4.17;2.80;;;;;;;16.08;100.00;96148.06;5062172;28;20208;-84
2022/06/07 02:52:38;;;;;;;3.40;2.70;;;;;;;16.06;100.00;96150.25;5060528;28;20267;-85
2022/06/07 02:55:19;;;;;;;5.33;3.50;;;;;;;16.10;100.00;96154.88;5062743;28;20216;-84
2022/06/07 02:57:50;;;;;;;5.50;3.83;;;;;;;16.09;100.00;96161.41;5076459;28;20202;-85
2022/06/07 03:00:23;;;;;;;4.73;3.80;;;;;;;16.14;100.00;96158.72;5071924;28;20229;-84
2022/06/07 03:02:50;;;;;;;5.47;3.77;;;;;;;16.10;100.00;96148.59;5060531;28;20296;-84
2022/06/07 03:05:20;;;;;;;4.07;3.53;;;;;;;16.16;100.00;96158.44;5062121;28;20278;-83
2022/06/07 03:07:55;;;;;;;5.90;3.80;;;;;;;16.09;100.00;96155.97;5059376;28;20316;-84
2022/06/07 03:10:23;;;;;;;5.90;3.47;;;;;;;16.14;100.00;96163.34;5075005;28;20212;-84
2022/06/07 03:12:54;;;;;;;4.30;3.40;;;;;;;16.16;100.00;96166.63;5063369;28;20202;-85
2022/06/07 03:15:24;;;;;;;3.43;3.13;;;;;;;16.15;100.00;96162.25;5056924;28;20209;-83
2022/06/07 03:17:52;;;;;;;4.33;3.37;;;;;;;16.19;100.00;96168.78;5060301;28;20204;-84
2022/06/07 03:20:23;;;;;;;5.30;3.40;;;;;;;16.15;100.00;96168.53;5061272;28;20314;-83
2022/06/07 03:22:52;;;;;;;3.90;3.50;;;;;;;16.14;100.00;96171.50;5061057;28;20255;-83
2022/06/07 03:25:20;;;;;;;4.43;3.40;;;;;;;16.12;100.00;96166.31;5076630;28;20240;-83
2022/06/07 03:27:56;;;;;;;4.40;3.43;;;;;;;16.12;100.00;96168.22;5077847;28;20237;-83
2022/06/07 03:30:23;;;;;;;5.57;3.93;;;;;;;16.15;100.00;96170.44;5059668;28;20205;-84
2022/06/07 03:32:51;;;;;;;3.90;3.53;;;;;;;16.13;100.00;96167.16;5064510;28;20193;-83
2022/06/07 03:35:18;;;;;;;6.17;3.63;;;;;;;16.14;100.00;96168.78;5061903;28;20225;-85
2022/06/07 03:37:45;;;;;;;3.80;3.40;;;;;;;16.13;100.00;96170.69;5062072;28;20211;-84
2022/06/07 03:40:42;;;;;;;4.43;3.40;;;;;;;16.09;100.00;96176.94;5064653;28;20294;-84
2022/06/07 03:43:07;;;;;;;4.07;3.67;;;;;;;16.06;100.00;96172.03;5065259;28;20236;-84
2022/06/07 03:45:36;;;;;;;4.43;3.27;;;;;;;16.02;100.00;96174.47;5070518;28;20202;-84
2022/06/07 03:48:03;;;;;;;3.80;3.30;;;;;;;15.96;100.00;96175.56;5072603;28;20288;-83
2022/06/07 03:50:30;;;;;;;4.57;3.23;;;;;;;15.82;100.00;96167.06;5066462;28;20209;-83
2022/06/07 03:52:58;;;;;;;7.20;3.87;;;;;;;15.86;100.00;96170.91;5080390;28;20205;-84
2022/06/07 03:55:25;;;;;;;5.93;3.87;;;;;;;15.88;100.00;96173.34;5062529;28;20217;-84
2022/06/07 03:58:10;;;;;;;5.87;3.93;;;;;;;15.96;100.00;96183.72;5064878;28;20228;-84
2022/06/07 04:00:37;;;;;;;4.13;3.37;;;;;;;15.85;100.00;96174.69;5078193;28;20202;-84
2022/06/07 04:03:07;;;;;;;4.23;3.60;;;;;;;15.84;100.00;96180.41;5063904;28;20259;-83
2022/06/07 04:05:40;;;;;;;5.03;3.90;;;;;;;15.80;100.00;96184.75;5062942;28;20255;-82
2022/06/07 04:08:10;;;;;;;10.30;6.53;;;;;;;15.89;100.00;96189.44;5074849;28;20266;-84
2022/06/07 04:10:38;;;;;;;3.70;3.27;;;;;;;15.91;100.00;96196.50;5075387;28;20220;-83
2022/06/07 04:13:06;;;;;;;6.00;3.40;;;;;;;15.85;100.00;96193.75;5065410;28;20193;-83
2022/06/07 04:15:37;;;;;;;4.67;3.83;;;;;;;15.84;100.00;96194.03;5058308;28;20226;-83
2022/06/07 04:18:04;;;;;;;5.93;4.03;;;;;;;15.84;100.00;96181.22;5069848;28;20217;-82
2022/06/07 04:20:36;;;;;;;6.23;3.57;;;;;;;15.79;100.00;96183.94;5065278;28;20201;-83
2022/06/07 04:23:05;;;;;;;3.60;3.13;;;;;;;15.80;100.00;96188.31;5082553;28;20197;-83
2022/06/07 04:25:39;;;;;;;5.37;3.50;;;;;;;15.82;100.00;96188.03;5064431;28;20225;-83
2022/06/07 04:28:08;;;;;;;4.97;3.30;;;;;;;15.79;100.00;96194.00;5062807;28;20216;-83
2022/06/07 04:30:39;;;;;;;5.37;3.30;;;;;;;15.75;100.00;96188.28;5064792;28;20229;-82
2022/06/07 04:33:06;;;;;;;3.47;2.77;;;;;;;15.73;100.00;96195.09;5078128;28;20205;-82
2022/06/07 04:35:34;;;;;;;4.23;3.17;;;;;;;15.77;100.00;96202.44;5066906;28;20293;-83
2022/06/07 04:38:04;;;;;;;3.90;3.00;;;;;;;15.80;100.00;96201.91;5059073;28;20280;-83
2022/06/07 04:40:36;;;;;;;5.20;3.77;;;;;;;15.85;100.00;96204.66;5064535;28;20210;-84
2022/06/07 04:43:05;;;;;;;4.40;3.10;;;;;;;15.91;100.00;96204.69;5080814;28;20233;-84
2022/06/07 04:45:33;;;;;;;5.00;3.93;;;;;;;15.97;100.00;96198.16;5066416;28;20336;-83
2022/06/07 04:48:16;;;;;;;3.40;3.10;;;;;;;16.01;100.00;96207.41;5064529;28;20233;-85
2022/06/07 04:51:01;;;;;;;3.70;2.97;;;;;;;16.00;100.00;96197.59;5064671;28;20212;-83
2022/06/07 04:53:29;;;;;;;3.20;2.90;;;;;;;16.04;100.00;96206.88;5062229;28;20212;-85
2022/06/07 04:55:56;;;;;;;4.50;3.20;;;;;;;16.03;100.00;96208.78;5060679;28;20212;-84
2022/06/07 04:58:24;;;;;;;3.83;2.97;;;;;;;15.95;100.00;96203.88;5078306;28;20210;-85
2022/06/07 05:00:53;;;;;;;4.93;3.27;;;;;;;15.90;100.00;96209.31;5078635;28;20225;-83
2022/06/07 05:03:22;;;;;;;3.47;3.17;;;;;;;15.89;100.00;96205.75;5076274;28;20259;-83
2022/06/07 05:05:50;;;;;;;3.53;3.10;;;;;;;15.92;100.00;96209.00;5062128;28;20312;-84
2022/06/07 05:08:18;;;;;;;3.77;3.10;;;;;;;15.96;100.00;96210.94;5072963;28;20206;-84
2022/06/07 05:10:48;;;;;;;3.67;3.20;;;;;;;15.92;100.00;96219.91;5078437;28;20217;-84
2022/06/07 05:13:15;;;;;;;3.73;3.10;;;;;;;15.93;100.00;96218.81;5062938;28;20205;-83
2022/06/07 05:15:43;;;;;;;4.03;3.40;;;;;;;16.01;100.00;96218.31;5064171;28;20225;-84
2022/06/07 05:18:16;;;;;;;5.70;3.43;;;;;;;16.09;100.00;96225.97;5064973;28;20202;-84
2022/06/07 05:20:47;;;;;;;5.70;3.30;;;;;;;16.03;100.00;96221.59;5053746;28;20296;-84
2022/06/07 05:23:19;;;;;;;4.40;2.70;;;;;;;16.05;100.00;96230.31;5065398;28;20245;-84
2022/06/07 05:25:59;;;;;;;3.53;3.20;;;;;;;16.04;100.00;96234.13;5064911;28;20237;-85
2022/06/07 05:28:26;;;;;;;3.13;2.83;;;;;;;16.13;100.00;96259.75;5070573;28;20213;-85
2022/06/07 05:30:55;;;;;;;4.23;2.90;;;;;;;16.13;100.00;96249.69;5062393;28;20357;-84
2022/06/07 05:33:41;;;;;;;3.30;2.90;;;;;;;16.17;100.00;96263.56;5060546;28;20227;-84
2022/06/07 05:36:10;;;;;;;2.80;2.40;;;;;;;16.16;100.00;96260.03;5069818;28;20326;-84
2022/06/07 05:38:37;;;;;;;2.80;2.60;;;;;;;16.12;100.00;96266.28;5064897;28;20205;-84
2022/06/07 05:41:15;;;;;;;4.73;2.70;;;;;;;16.11;100.00;96272.81;5063826;28;20225;-84
2022/06/07 05:43:43;;;;;;;2.90;2.60;;;;;;;16.14;100.00;96264.94;5060897;28;20229;-84
2022/06/07 05:46:10;;;;;;;2.60;2.40;;;;;;;16.15;100.00;96269.31;5062768;28;20198;-84
2022/06/07 05:48:49;;;;;;;3.90;2.30;;;;;;;16.17;100.00;96266.28;5075843;28;20198;-85
2022/06/07 05:51:25;;;;;;;3.33;2.60;;;;;;;16.08;100.00;96265.16;5079178;28;20234;-84
2022/06/07 05:53:54;;;;;;;4.23;2.53;;;;;;;16.06;100.00;96264.66;5072966;28;20197;-82
2022/06/07 05:56:22;;;;;;;3.57;2.30;;;;;;;16.01;100.00;96257.25;5060497;28;20209;-82
2022/06/07 05:58:51;;;;;;;3.47;2.33;;;;;;;16.01;100.00;96273.59;5063191;28;20299;-84
2022/06/07 06:01:19;;;;;;;2.80;2.50;;;;;;;15.90;100.00;96271.94;5062570;28;20190;-84
2022/06/07 06:03:50;;;;;;;3.13;2.37;;;;;;;15.84;100.00;96273.78;5063053;28;20199;-84
2022/06/07 06:06:18;;;;;;;2.27;2.07;;;;;;;15.80;100.00;96264.53;5062881;28;20224;-82
2022/06/07 06:11:41;;;;;;;3.70;2.00;;;;;;;15.79;100.00;96265.63;5075233;28;20243;-82
2022/06/07 06:14:21;;;;;;;3.40;2.10;;;;;;;15.83;100.00;96268.59;5073969;28;20205;-82
2022/06/07 06:16:54;;;;;;;5.37;2.40;;;;;;;15.85;100.00;96264.53;5059632;28;20223;-82
2022/06/07 06:19:38;;;;;;;2.27;1.80;;;;;;;15.81;100.00;96268.91;5077964;28;20267;-82
2022/06/07 06:22:06;;;;;;;2.07;1.70;;;;;;;15.84;100.00;96268.34;5058269;28;20224;-82
2022/06/07 06:24:36;;;;;;;2.53;2.00;;;;;;;15.93;100.00;96270.56;5058436;28;20217;-83
2022/06/07 06:27:06;;;;;;;2.20;2.00;;;;;;;15.91;100.00;96261.88;5058752;28;20301;-83
2022/06/07 06:29:38;;;;;;;2.30;2.10;;;;;;;15.85;100.00;96269.16;5052727;28;20290;-83
2022/06/07 06:32:07;;;;;;;5.40;2.10;;;;;;;15.81;100.00;96263.44;5060288;28;20291;-82
2022/06/07 06:34:35;;;;;;;2.60;2.27;;;;;;;15.78;100.00;96261.25;5060579;28;20220;-82
2022/06/07 06:37:07;;;;;;;3.10;2.10;;;;;;;15.75;100.00;96264.50;5059691;28;20232;-82
2022/06/07 06:39:38;;;;;;;2.53;2.33;;;;;;;15.88;100.00;96276.81;5076833;28;20205;-84
2022/06/07 06:42:06;;;;;;;2.20;2.00;;;;;;;15.99;100.00;96285.88;5074777;28;20210;-83
2022/06/07 06:44:43;;;;;;;2.43;2.23;;;;;;;15.97;100.00;96277.94;5071673;28;20248;-83
2022/06/07 06:47:12;;;;;;;3.17;2.20;;;;;;;16.00;100.00;96282.03;5072238;28;20216;-82
2022/06/07 06:49:41;;;;;;;2.70;1.97;;;;;;;16.02;100.00;96296.19;5062450;28;20207;-83
2022/06/07 06:52:10;;;;;;;3.73;2.07;;;;;;;16.09;100.00;96292.16;5078758;28;20197;-84
2022/06/07 06:54:39;;;;;;;4.03;2.73;;;;;;;16.08;100.00;96300.56;5051758;28;20267;-85
2022/06/07 06:57:22;;;;;;;2.93;2.10;;;;;;;16.01;100.00;96305.47;5065169;28;20205;-83
2022/06/07 06:59:49;;;;;;;2.53;2.20;;;;;;;16.10;100.00;96303.88;5060462;28;20307;-83
2022/06/07 07:02:16;;;;;;;2.80;2.30;;;;;;;16.24;100.00;96305.03;5063114;28;20202;-82
2022/06/07 07:05:05;;;;;;;2.40;2.13;;;;;;;16.40;100.00;96304.00;5062541;28;20209;-83
2022/06/07 07:07:33;;;;;;;2.13;1.87;;;;;;;16.50;100.00;96295.03;5078048;28;20270;-82
2022/06/07 07:10:03;;;;;;;2.87;1.80;;;;;;;16.55;100.00;96290.41;5060007;28;20221;-83
2022/06/07 07:12:32;;;;;;;1.80;1.70;;;;;;;16.57;100.00;96299.13;5066362;28;20259;-83
2022/06/07 07:15:04;;;;;;;4.17;1.80;;;;;;;16.62;100.00;96301.06;5062414;28;20201;-82
2022/06/07 07:17:41;;;;;;;1.93;1.80;;;;;;;16.55;100.00;96303.22;5059663;28;20237;-84
2022/06/07 07:20:09;;;;;;;3.23;1.90;;;;;;;16.64;100.00;96312.53;5074627;28;20292;-83
2022/06/07 07:22:40;;;;;;;2.10;1.87;;;;;;;16.75;100.00;96300.56;5062663;28;20198;-83
2022/06/07 07:25:10;;;;;;;3.13;2.03;;;;;;;16.93;100.00;96304.66;5080048;28;20263;-83
2022/06/07 07:27:39;;;;;;;3.27;1.87;;;;;;;16.93;100.00;96302.75;5064812;28;20213;-83
2022/06/07 07:30:09;;;;;;;1.93;1.70;;;;;;;16.91;100.00;96304.13;5074313;28;20277;-83
2022/06/07 07:32:38;;;;;;;1.93;1.80;;;;;;;17.00;100.00;96303.31;5062553;28;20197;-83
2022/06/07 07:35:07;;;;;;;2.57;1.87;;;;;;;17.04;100.00;96292.66;5071378;28;20226;-82
2022/06/07 07:37:43;;;;;;;2.20;2.00;;;;;;;17.14;100.00;96292.66;5052659;28;20198;-82
2022/06/07 07:40:16;;;;;;;1.80;1.70;;;;;;;17.16;100.00;96287.78;5072823;28;20208;-85
2022/06/07 07:42:43;;;;;;;2.10;1.90;;;;;;;17.17;100.00;96300.31;5064729;28;20332;-84
2022/06/07 07:45:17;;;;;;;1.63;1.53;;;;;;;17.13;100.00;96293.75;5061059;28;20233;-84
2022/06/07 07:47:45;;;;;;;2.27;2.00;;;;;;;17.06;100.00;96295.13;5063032;28;20292;-84
2022/06/07 07:50:12;;;;;;;2.00;1.80;;;;;;;17.02;100.00;96294.84;5057339;28;20198;-84
2022/06/07 07:52:45;;;;;;;2.33;1.97;;;;;;;16.98;100.00;96304.66;5061414;28;20205;-83
2022/06/07 07:55:15;;;;;;;2.00;1.80;;;;;;;17.03;100.00;96307.38;5064389;28;20201;-84
2022/06/07 07:57:44;;;;;;;2.10;1.80;;;;;;;17.06;100.00;96295.94;5063502;28;20255;-84
2022/06/07 08:00:16;;;;;;;2.33;2.00;;;;;;;16.98;100.00;96301.94;5076289;28;20202;-85
2022/06/07 08:02:50;;;;;;;3.60;2.10;;;;;;;16.98;100.00;96299.22;5076653;28;20213;-83
2022/06/07 08:05:31;;;;;;;1.70;1.60;;;;;;;16.99;100.00;96289.94;5064025;28;20225;-84
2022/06/07 08:07:58;;;;;;;2.47;2.27;;;;;;;16.99;100.00;96292.69;5063756;28;20205;-84
2022/06/07 08:10:29;;;;;;;1.73;1.63;;;;;;;17.06;100.00;96290.50;5078901;28;20205;-84
2022/06/07 08:12:56;;;;;;;1.70;1.60;;;;;;;16.94;100.00;96292.66;5078578;28;20208;-83
2022/06/07 08:15:23;;;;;;;1.80;1.70;;;;;;;16.92;100.00;96294.84;5061714;28;20213;-83
2022/06/07 08:17:51;;;;;;;1.60;1.50;;;;;;;16.87;100.00;96287.47;5060896;28;20210;-86
2022/06/07 08:20:23;;;;;;;1.90;1.70;;;;;;;16.97;100.00;96294.84;5062093;28;20320;-87
2022/06/07 08:22:50;;;;;;;3.97;1.60;;;;;;;16.90;100.00;96288.84;5061432;28;20214;-85
2022/06/07 08:25:21;;;;;;;2.03;1.70;;;;;;;16.92;100.00;96283.94;5065754;28;20213;-83
2022/06/07 08:27:50;;;;;;;2.03;1.83;;;;;;;16.93;100.00;96285.56;5063660;28;20213;-88
2022/06/07 08:30:17;;;;;;;2.93;1.60;;;;;;;16.98;100.00;96288.31;5064099;28;20233;-87
2022/06/07 08:32:45;;;;;;;1.50;1.40;;;;;;;16.97;100.00;96290.22;5076895;28;20287;-87
2022/06/07 08:38:00;;;;;;;1.20;1.10;;;;;;;16.89;100.00;96284.47;5071720;28;20205;-87
2022/06/07 08:40:33;;;;;;;1.47;1.37;;;;;;;16.92;100.00;96289.41;5083875;28;20460;-87
2022/06/07 08:43:09;;;;;;;1.50;1.27;;;;;;;16.92;100.00;96286.66;5078836;28;20234;-87
2022/06/07 08:45:40;;;;;;;1.63;1.30;;;;;;;16.98;100.00;96288.31;5081718;28;20256;-86
2022/06/07 08:48:16;;;;;;;1.40;1.30;;;;;;;17.01;100.00;96287.78;5063634;28;20198;-83
2022/06/07 08:50:46;;;;;;;1.47;1.37;;;;;;;17.09;100.00;96289.94;5061156;28;20255;-82
2022/06/07 08:53:18;;;;;;;1.63;1.40;;;;;;;17.06;100.00;96278.75;5063740;28;20208;-88
2022/06/07 08:55:48;;;;;;;1.40;1.30;;;;;;;17.10;100.00;96290.78;5081841;28;20285;-87
2022/06/07 08:58:19;;;;;;;1.30;1.20;;;;;;;16.89;100.00;96288.03;5082289;28;20200;-87
2022/06/07 09:00:50;;;;;;;2.17;1.00;;;;;;;16.82;100.00;96289.38;5065655;28;20213;-81
2022/06/07 09:03:39;;;;;;;1.07;1.00;;;;;;;16.84;100.00;96292.66;5069581;28;20232;-86
2022/06/07 09:06:16;;;;;;;2.73;1.30;;;;;;;16.79;100.00;96289.91;5057713;28;20229;-87
2022/06/07 09:08:46;;;;;;;2.40;1.40;;;;;;;16.79;100.00;96287.19;5074151;28;20213;-86
2022/06/07 09:14:09;;;;;;;2.33;1.50;;;;;;;16.86;100.00;96285.00;5081159;28;20218;-82
2022/06/07 09:16:42;;;;;;;1.37;1.17;;;;;;;16.88;100.00;96280.09;5050843;28;20213;-86
2022/06/07 09:19:11;;;;;;;1.60;1.30;;;;;;;16.93;100.00;96271.91;5077550;28;20220;-86
2022/06/07 09:21:43;;;;;;;1.70;1.57;;;;;;;17.01;100.00;96279.59;5066613;28;20223;-85
2022/06/07 09:24:15;;;;;;;1.57;1.47;;;;;;;17.18;100.00;96282.03;5078559;28;20214;-83
2022/06/07 09:26:42;;;;;;;2.33;1.50;;;;;;;17.35;100.00;96275.19;5063478;28;20225;-85
2022/06/07 09:29:16;;;;;;;2.53;1.43;;;;;;;17.38;100.00;96265.63;5063365;28;20210;-85
2022/06/07 09:31:45;;;;;;;1.50;1.40;;;;;;;17.52;100.00;96268.63;5063148;28;20237;-84
2022/06/07 09:34:20;;;;;;;1.60;1.50;;;;;;;17.69;100.00;96269.16;5063361;28;20487;-82
2022/06/07 09:36:55;;;;;;;1.93;1.43;;;;;;;17.81;100.00;96275.13;5064535;28;20237;-87
2022/06/07 09:39:28;;;;;;;1.40;1.27;;;;;;;17.84;100.00;96266.38;5079716;28;20201;-87
2022/06/07 09:42:03;;;;;;;1.63;1.20;;;;;;;17.62;100.00;96260.41;5060769;28;20216;-85
2022/06/07 09:44:35;;;;;;;2.10;1.17;;;;;;;17.50;100.00;96257.16;5057095;28;20336;-85
2022/06/07 09:47:05;;;;;;;2.33;1.40;;;;;;;17.51;100.00;96264.25;5065473;28;20225;-86
2022/06/07 09:49:38;;;;;;;1.40;1.30;;;;;;;17.57;100.00;96249.50;5076320;28;20321;-86
2022/06/07 09:52:12;;;;;;;1.50;1.23;;;;;;;17.56;100.00;96251.41;5071892;28;20221;-86
2022/06/07 09:54:45;;;;;;;1.50;1.30;;;;;;;17.77;100.00;96246.75;5056435;28;20241;-85
2022/06/07 09:57:29;;;;;;;1.30;1.20;;;;;;;17.85;100.00;96246.19;5080735;28;20243;-88
2022/06/07 10:00:16;;;;;;;1.73;1.40;;;;;;;18.01;100.00;96247.75;5065742;28;20303;-88
2022/06/07 10:03:06;;;;;;;2.27;1.37;;;;;;;18.10;100.00;96250.72;5070205;28;20210;-87
2022/06/07 10:05:37;;;;;;;2.20;1.27;;;;;;;18.13;100.00;96250.97;5060429;28;20226;-86
2022/06/07 10:08:16;;;;;;;1.43;1.30;;;;;;;17.99;100.00;96244.47;5074584;28;20223;-82
2022/06/07 10:10:51;;;;;;;1.20;1.10;;;;;;;18.06;100.00;96250.44;5079980;28;20208;-83
2022/06/07 10:13:32;;;;;;;1.20;1.10;;;;;;;18.11;100.00;96249.63;5079492;28;20201;-87
2022/06/07 10:16:13;;;;;;;1.17;1.07;;;;;;;18.17;100.00;96247.69;5062819;28;20232;-82
2022/06/07 10:18:51;;;;;;;1.40;1.20;;;;;;;18.26;100.00;96243.25;5073415;28;20216;-87
2022/06/07 10:21:50;;;;;;;1.30;1.20;;;;;;;18.15;100.00;96245.22;5072440;28;20205;-87
2022/06/07 10:24:27;;;;;;;1.40;1.20;;;;;;;18.17;100.00;96234.81;5060833;28;20201;-87
2022/06/07 10:27:05;;;;;;;1.50;1.20;;;;;;;18.20;100.00;96233.47;5060330;28;20260;-87
2022/06/07 10:30:16;;;;;;;2.00;1.20;;;;;;;18.17;100.00;96232.09;5076102;28;20218;-87
2022/06/07 10:32:57;;;;;;;1.30;1.20;;;;;;;18.07;100.00;96232.97;4989089;28;20218;-87
2022/06/07 10:35:31;;;;;;;1.77;1.27;;;;;;;18.09;100.00;96227.22;4988761;28;20203;-87
2022/06/07 10:38:21;;;;;;;1.53;1.43;;;;;;;18.11;100.00;96220.38;5037427;28;20204;-87
2022/06/07 10:41:00;;;;;;;1.20;1.10;;;;;;;18.13;100.00;96226.38;5080485;28;20546;-87
2022/06/07 10:43:32;;;;;;;1.40;1.30;;;;;;;18.12;100.00;96218.44;5082687;28;20236;-85
2022/06/07 10:46:00;;;;;;;1.40;1.30;;;;;;;18.26;100.00;96232.31;5066912;28;20218;-85
2022/06/07 10:48:34;;;;;;;1.43;1.20;;;;;;;18.29;100.00;96229.03;5064497;28;20216;-85
2022/06/07 10:53:57;;;;;;;1.50;1.40;;;;;;;18.14;100.00;96227.19;5073863;28;20308;-85
2022/06/07 10:56:28;;;;;;;1.30;1.20;;;;;;;17.95;100.00;96221.53;5058835;28;20206;-84
2022/06/07 10:58:59;;;;;;;1.40;1.30;;;;;;;18.00;100.00;96220.69;5060308;28;20277;-85
2022/06/07 11:01:35;;;;;;;1.10;1.10;;;;;;;17.90;100.00;96218.00;5082043;28;20205;-85
2022/06/07 11:09:19;;;;;;;1.40;1.30;;;;;;;18.09;100.00;96222.56;5061628;28;20209;-86
2022/06/07 11:09:51;;;;;;;1.50;1.40;;;;;;;18.42;100.00;96223.75;5061673;28;20204;-84
2022/06/07 11:12:24;;;;;;;1.40;1.30;;;;;;;18.57;100.00;96220.13;5066098;28;20201;-86
2022/06/07 11:15:04;;;;;;;1.40;1.30;;;;;;;18.64;100.00;96220.63;5065127;28;20213;-86
2022/06/07 11:17:38;;;;;;;1.50;1.40;;;;;;;18.85;100.00;96215.81;5066638;28;20236;-87
2022/06/07 11:20:18;;;;;;;1.13;1.00;;;;;;;19.24;100.00;96211.09;5078699;28;20254;-87
2022/06/07 11:23:02;;;;;;;4.03;1.17;;;;;;;19.43;100.00;96208.44;5082169;28;20241;-85
2022/06/07 11:25:34;;;;;;;1.40;1.27;;;;;;;19.52;100.00;96190.31;5075882;28;20209;-85
2022/06/07 11:28:07;;;;;;;1.50;1.20;;;;;;;19.67;100.00;96202.19;5075297;28;20212;-85
2022/06/07 11:30:49;;;;;;;2.10;1.23;;;;;;;19.62;100.00;96192.13;5068257;28;20210;-86
2022/06/07 11:33:42;;;;;;;2.80;1.52;;;;;;;19.40;100.00;96195.31;5057791;28;20209;-82
2022/06/07 11:36:44;;;;;;;1.42;1.30;;;;;;;19.49;100.00;96181.84;5062000;28;20284;-87
2022/06/07 11:39:28;;;;;;;1.20;1.10;;;;;;;19.60;100.00;96169.69;5000691;28;20222;-86
2022/06/07 11:41:58;;;;;;;2.30;1.20;;;;;;;19.69;99.98;96184.38;5004071;28;20206;-86
2022/06/07 11:44:59;;;;;;;1.20;1.10;;;;;;;19.81;98.66;96183.97;5034279;28;20253;-86
2022/06/07 11:47:34;;;;;;;2.00;1.30;;;;;;;20.03;97.75;96173.25;5063780;28;20232;-86
2022/06/07 11:50:12;;;;;;;1.30;1.20;;;;;;;20.12;96.10;96176.16;5077871;28;20304;-86
2022/06/07 11:53:16;;;;;;;2.10;1.30;;;;;;;20.43;94.23;96171.06;5080502;28;20201;-86
2022/06/07 11:55:45;;;;;;;6.68;1.20;;;;;;;20.55;89.46;96165.97;5059782;28;20253;-85
2022/06/07 11:58:13;;;;;;;4.22;2.38;;;;;;;20.65;91.00;96171.28;5058808;28;20212;-85
2022/06/07 12:00:50;;;;;;;1.60;1.00;;;;;;;20.94;88.24;96163.66;5062910;28;20224;-83
2022/06/07 12:03:37;;;;;;;1.20;1.10;;;;;;;21.09;84.83;96160.69;5065506;28;20215;-82
2022/06/07 12:06:20;;;;;;;0.98;0.98;;;;;;;21.08;82.57;96150.00;5081918;28;20220;-82
2022/06/07 12:08:59;;;;;;;1.20;1.00;;;;;;;21.20;84.31;96144.03;5067414;28;20209;-84
2022/06/07 12:11:28;;;;;;;1.38;1.10;;;;;;;21.40;87.19;96132.66;5067901;28;20217;-82
2022/06/07 12:14:35;;;;;;;1.10;1.00;;;;;;;21.38;86.20;96138.47;5070340;28;20210;-84